»·PEaware :: N828RX KSBP-KDVO

N828RX :: KSBP-KDVO

FLIGHT INFORMATION

Flight Status: Arrived
Operator: Privately registered:
United States
More flights under this callsign
Pilot: Joaquin E. (29565)
Aircraft: PILATUS PC-12 EAGLE
(PC12)
More flights by this aircraft type
Origin: KSBP San Luis Co Regl
United States
Destination: KDVO Gnoss
United States
More flights between these airports :: More routes between these airports
Route: +SNS
File this flight plan on PilotEdge
Remarks: PRACTICE IFR ROUTE
Altitude:
(Current/Filed)
28,000ft
Speed:
(Current/Filed)
250kts
Departed: 16-May-20 05:53 PM
Arrived: 16-May-20 07:02 PM
Distance/Time
Traveled:
197nm/1:09
Distance/Time
To Go:
Arrived

Flight Plot

Page will automatically refresh every two minutes.

Flight plan parsing failed; only flown route is shown


Map Options




Map Legend


Flown Route
Filed Route
Departure Airport
Arrival Airport
Navaid (VOR, NDB)
Fix

Horizontal Profiles

Position Reports

Time Latitude Longitude Heading Altitude Ground
Speed
16-May-20 17:28 35.240244 -120.643360 123 216ft 0kts
16-May-20 17:29 35.240244 -120.643360 123 216ft 0kts
16-May-20 17:30 35.240244 -120.643360 123 216ft 0kts
16-May-20 17:31 35.240244 -120.643360 123 216ft 0kts
16-May-20 17:32 35.240244 -120.643360 123 216ft 0kts
16-May-20 17:33 35.240244 -120.643360 123 216ft 0kts
16-May-20 17:34 35.240244 -120.643360 123 216ft 0kts
16-May-20 17:35 35.240244 -120.643360 123 216ft 0kts
16-May-20 17:36 35.240244 -120.643360 123 216ft 0kts
16-May-20 17:37 35.240244 -120.643360 123 216ft 0kts
16-May-20 17:38 35.240244 -120.643360 123 216ft 0kts
16-May-20 17:39 35.240244 -120.643360 123 216ft 0kts
16-May-20 17:40 35.240165 -120.643215 125 216ft 0kts
16-May-20 17:41 35.240165 -120.643215 125 216ft 0kts
16-May-20 17:42 35.240165 -120.643215 125 216ft 0kts
16-May-20 17:43 35.240165 -120.643215 125 216ft 0kts
16-May-20 17:44 35.240165 -120.643215 125 216ft 0kts
16-May-20 17:45 35.239984 -120.643135 203 216ft 0kts
16-May-20 17:46 35.239984 -120.643135 203 216ft 0kts
16-May-20 17:47 35.239984 -120.643135 203 216ft 0kts
16-May-20 17:48 35.238563 -120.641365 125 216ft 10kts
16-May-20 17:49 35.236265 -120.637162 125 216ft 21kts
16-May-20 17:50 35.233384 -120.632428 159 216ft 3kts
16-May-20 17:51 35.233228 -120.632390 181 216ft 8kts
16-May-20 17:52 35.239960 -120.647156 306 1051ft 88kts
16-May-20 17:53 35.252119 -120.674104 300 2618ft 135kts
16-May-20 17:54 35.268531 -120.705276 301 4487ft 142kts
16-May-20 17:55 35.288045 -120.736749 323 6129ft 154kts
16-May-20 17:56 35.317900 -120.755220 327 7596ft 163kts
16-May-20 17:57 35.351550 -120.776164 328 8235ft 197kts
16-May-20 17:58 35.384668 -120.796443 327 9801ft 173kts
16-May-20 17:59 35.417412 -120.816855 328 10843ft 182kts
16-May-20 18:00 35.451233 -120.837831 328 11837ft 186kts
16-May-20 18:01 35.486035 -120.859363 328 12751ft 190kts
16-May-20 18:02 35.521365 -120.881309 328 13661ft 195kts
16-May-20 18:03 35.557082 -120.903515 327 14877ft 196kts
16-May-20 18:04 35.593520 -120.926200 327 15963ft 199kts
16-May-20 18:05 35.630470 -120.949232 327 16948ft 202kts
16-May-20 18:06 35.668074 -120.972702 326 17866ft 206kts
16-May-20 18:07 35.706057 -120.996416 326 18900ft 207kts
16-May-20 18:08 35.744185 -121.020256 325 19811ft 210kts
16-May-20 18:09 35.785817 -121.046468 326 19922ft 241kts
16-May-20 18:10 35.832326 -121.075540 327 19920ft 259kts
16-May-20 18:11 35.881158 -121.106112 326 19919ft 267kts
16-May-20 18:12 35.930917 -121.137351 326 19918ft 270kts
16-May-20 18:13 35.981853 -121.169398 326 19918ft 271kts
16-May-20 18:14 36.034815 -121.202777 326 19931ft 270kts
16-May-20 18:15 36.088351 -121.236600 326 19964ft 270kts
16-May-20 18:16 36.138654 -121.268410 326 19983ft 269kts
16-May-20 18:17 36.189518 -121.300626 326 19987ft 269kts
16-May-20 18:18 36.240558 -121.332994 326 19987ft 269kts
16-May-20 18:19 36.290990 -121.365026 326 19987ft 269kts
16-May-20 18:20 36.341476 -121.397136 326 19987ft 269kts
16-May-20 18:21 36.391677 -121.429114 326 19987ft 269kts
16-May-20 18:22 36.441480 -121.460885 326 19989ft 269kts
16-May-20 18:23 36.491158 -121.492620 326 19991ft 269kts
16-May-20 18:24 36.541164 -121.524610 326 19992ft 269kts
16-May-20 18:25 36.591497 -121.556862 326 19990ft 269kts
16-May-20 18:26 36.641723 -121.589090 326 19988ft 270kts
16-May-20 18:27 36.691863 -121.620964 326 19987ft 270kts
16-May-20 18:28 36.741532 -121.652339 326 19989ft 270kts
16-May-20 18:29 36.792012 -121.684258 326 19993ft 270kts
16-May-20 18:30 36.841700 -121.715726 326 19996ft 270kts
16-May-20 18:31 36.890935 -121.746953 326 19999ft 270kts
16-May-20 18:32 36.939066 -121.777456 326 20000ft 260kts
16-May-20 18:33 36.987500 -121.808244 325 20002ft 255kts
16-May-20 18:34 37.034027 -121.837854 324 20003ft 254kts
16-May-20 18:35 37.080537 -121.867540 323 20004ft 255kts
16-May-20 18:36 37.125178 -121.896070 323 19997ft 257kts
16-May-20 18:37 37.170742 -121.925295 323 19985ft 258kts
16-May-20 18:38 37.214584 -121.953357 323 19970ft 256kts
16-May-20 18:39 37.255139 -121.979376 323 19959ft 255kts
16-May-20 18:40 37.295740 -122.005631 324 19368ft 276kts
16-May-20 18:41 37.339829 -122.033918 325 18416ft 284kts
16-May-20 18:42 37.385590 -122.063308 325 17437ft 286kts
16-May-20 18:43 37.432718 -122.093664 326 16432ft 286kts
16-May-20 18:44 37.479535 -122.123881 326 15433ft 285kts
16-May-20 18:45 37.526854 -122.154471 327 14420ft 284kts
16-May-20 18:46 37.575095 -122.185706 327 13342ft 284kts
16-May-20 18:47 37.622521 -122.216454 328 12258ft 283kts
16-May-20 18:48 37.667092 -122.245348 328 11236ft 281kts
16-May-20 18:49 37.712764 -122.274939 327 10146ft 264kts
16-May-20 18:51 37.755203 -122.302542 327 9893ft 236kts
16-May-20 18:52 37.797383 -122.330111 327 8842ft 247kts
16-May-20 18:53 37.840443 -122.358204 328 7784ft 247kts
16-May-20 18:54 37.883245 -122.386183 328 6724ft 244kts
16-May-20 18:55 37.922975 -122.412190 328 5723ft 240kts
16-May-20 18:56 37.964068 -122.439136 328 4675ft 239kts
16-May-20 18:57 38.007017 -122.467321 329 3580ft 239kts
16-May-20 18:58 38.050215 -122.495657 329 3004ft 222kts
16-May-20 18:59 38.090307 -122.521925 329 2647ft 192kts
16-May-20 19:00 38.123736 -122.542088 322 639ft 141kts
16-May-20 19:01 38.140985 -122.555152 327 19ft 78kts
16-May-20 19:02 38.145791 -122.558851 324 7ft 10kts
16-May-20 19:03 38.146798 -122.560172 157 7ft 11kts
16-May-20 19:04 38.144886 -122.558703 151 7ft 12kts
16-May-20 19:05 38.142137 -122.556839 208 7ft 10kts
16-May-20 19:06 38.141664 -122.557054 57 7ft 0kts
16-May-20 19:06 38.141665 -122.557052 57 7ft 0kts

Navigation Log

Ident Type
Flight plan parsing failed, navigation log unavailable